sensor_id;sensor_type;location;lat;lon;timestamp;temperature;humidity
9772;DHT22;4925;52.588;13.370;2022-11-25T00:01:19;6.60;99.90
9772;DHT22;4925;52.588;13.370;2022-11-25T00:03:46;6.60;99.90
9772;DHT22;4925;52.588;13.370;2022-11-25T00:06:15;6.70;99.90
9772;DHT22;4925;52.588;13.370;2022-11-25T00:08:43;6.70;99.90
9772;DHT22;4925;52.588;13.370;2022-11-25T00:11:09;6.70;99.90
9772;DHT22;4925;52.588;13.370;2022-11-25T00:13:35;6.80;99.90
9772;DHT22;4925;52.588;13.370;2022-11-25T00:16:02;6.80;99.90
9772;DHT22;4925;52.588;13.370;2022-11-25T00:18:29;6.90;99.90
9772;DHT22;4925;52.588;13.370;2022-11-25T00:20:55;6.90;99.90
9772;DHT22;4925;52.588;13.370;2022-11-25T00:23:21;6.90;99.90
9772;DHT22;4925;52.588;13.370;2022-11-25T00:25:46;6.80;99.90
9772;DHT22;4925;52.588;13.370;2022-11-25T00:28:12;6.80;99.90
9772;DHT22;4925;52.588;13.370;2022-11-25T00:30:38;6.80;99.90
9772;DHT22;4925;52.588;13.370;2022-11-25T00:33:03;6.80;99.90
9772;DHT22;4925;52.588;13.370;2022-11-25T00:35:29;6.90;99.90
9772;DHT22;4925;52.588;13.370;2022-11-25T00:37:55;6.90;99.90
9772;DHT22;4925;52.588;13.370;2022-11-25T00:40:21;7.00;99.90
9772;DHT22;4925;52.588;13.370;2022-11-25T00:42:46;7.00;99.90
9772;DHT22;4925;52.588;13.370;2022-11-25T00:45:30;7.00;99.90
9772;DHT22;4925;52.588;13.370;2022-11-25T00:47:56;7.00;99.90
9772;DHT22;4925;52.588;13.370;2022-11-25T00:50:22;7.00;99.90
9772;DHT22;4925;52.588;13.370;2022-11-25T00:52:47;7.10;99.90
9772;DHT22;4925;52.588;13.370;2022-11-25T00:55:13;7.10;99.90
9772;DHT22;4925;52.588;13.370;2022-11-25T00:57:39;7.10;99.90
9772;DHT22;4925;52.588;13.370;2022-11-25T01:00:05;7.10;99.90
9772;DHT22;4925;52.588;13.370;2022-11-25T01:02:31;7.20;99.90
9772;DHT22;4925;52.588;13.370;2022-11-25T01:04:56;7.20;99.90
9772;DHT22;4925;52.588;13.370;2022-11-25T01:07:22;7.20;99.90
9772;DHT22;4925;52.588;13.370;2022-11-25T01:09:48;7.20;99.90
9772;DHT22;4925;52.588;13.370;2022-11-25T01:12:13;7.20;99.90
9772;DHT22;4925;52.588;13.370;2022-11-25T01:14:39;7.30;99.90
9772;DHT22;4925;52.588;13.370;2022-11-25T01:17:05;7.30;99.90
9772;DHT22;4925;52.588;13.370;2022-11-25T01:19:31;7.30;99.90
9772;DHT22;4925;52.588;13.370;2022-11-25T01:21:56;7.30;99.90
9772;DHT22;4925;52.588;13.370;2022-11-25T01:24:22;7.30;99.90
9772;DHT22;4925;52.588;13.370;2022-11-25T01:26:48;7.30;99.90
9772;DHT22;4925;52.588;13.370;2022-11-25T01:29:15;7.30;99.90
9772;DHT22;4925;52.588;13.370;2022-11-25T01:31:42;7.30;99.90
9772;DHT22;4925;52.588;13.370;2022-11-25T01:34:28;7.30;99.90
9772;DHT22;4925;52.588;13.370;2022-11-25T01:36:56;7.30;99.90
9772;DHT22;4925;52.588;13.370;2022-11-25T01:39:24;7.40;99.90
9772;DHT22;4925;52.588;13.370;2022-11-25T01:41:50;7.40;99.90
9772;DHT22;4925;52.588;13.370;2022-11-25T01:44:18;7.30;99.90
9772;DHT22;4925;52.588;13.370;2022-11-25T01:49:41;7.30;99.90
9772;DHT22;4925;52.588;13.370;2022-11-25T01:52:12;7.30;99.90
9772;DHT22;4925;52.588;13.370;2022-11-25T01:54:59;7.40;99.90
9772;DHT22;4925;52.588;13.370;2022-11-25T01:57:34;7.40;99.90
9772;DHT22;4925;52.588;13.370;2022-11-25T02:00:03;7.40;99.90
9772;DHT22;4925;52.588;13.370;2022-11-25T02:02:30;7.40;99.90
9772;DHT22;4925;52.588;13.370;2022-11-25T02:04:56;7.40;99.90
9772;DHT22;4925;52.588;13.370;2022-11-25T02:07:31;7.40;99.90
9772;DHT22;4925;52.588;13.370;2022-11-25T02:09:59;7.40;99.90
9772;DHT22;4925;52.588;13.370;2022-11-25T02:12:26;7.40;99.90
9772;DHT22;4925;52.588;13.370;2022-11-25T02:14:53;7.40;99.90
9772;DHT22;4925;52.588;13.370;2022-11-25T02:17:20;7.40;99.90
9772;DHT22;4925;52.588;13.370;2022-11-25T02:25:41;7.40;99.90
9772;DHT22;4925;52.588;13.370;2022-11-25T02:28:15;7.40;99.90
9772;DHT22;4925;52.588;13.370;2022-11-25T02:30:41;7.40;99.90
9772;DHT22;4925;52.588;13.370;2022-11-25T02:33:07;7.50;99.90
9772;DHT22;4925;52.588;13.370;2022-11-25T02:35:47;7.40;99.90
9772;DHT22;4925;52.588;13.370;2022-11-25T02:43:29;7.30;99.90
9772;DHT22;4925;52.588;13.370;2022-11-25T02:45:58;7.30;99.90
9772;DHT22;4925;52.588;13.370;2022-11-25T02:48:25;7.30;99.90
9772;DHT22;4925;52.588;13.370;2022-11-25T02:50:51;7.30;99.90
9772;DHT22;4925;52.588;13.370;2022-11-25T02:53:18;7.20;99.90
9772;DHT22;4925;52.588;13.370;2022-11-25T02:55:45;6.90;99.90
9772;DHT22;4925;52.588;13.370;2022-11-25T02:58:12;7.00;99.90
9772;DHT22;4925;52.588;13.370;2022-11-25T03:00:38;7.00;99.90
9772;DHT22;4925;52.588;13.370;2022-11-25T03:03:04;7.10;99.90
9772;DHT22;4925;52.588;13.370;2022-11-25T03:05:30;7.10;99.90
9772;DHT22;4925;52.588;13.370;2022-11-25T03:07:56;7.20;99.90
9772;DHT22;4925;52.588;13.370;2022-11-25T03:10:22;7.10;99.90
9772;DHT22;4925;52.588;13.370;2022-11-25T03:12:48;6.80;99.90
9772;DHT22;4925;52.588;13.370;2022-11-25T03:15:14;6.80;99.90
9772;DHT22;4925;52.588;13.370;2022-11-25T03:17:39;6.80;99.90
9772;DHT22;4925;52.588;13.370;2022-11-25T03:20:09;6.70;99.90
9772;DHT22;4925;52.588;13.370;2022-11-25T03:22:35;6.60;99.90
9772;DHT22;4925;52.588;13.370;2022-11-25T03:25:00;6.40;99.90
9772;DHT22;4925;52.588;13.370;2022-11-25T03:27:26;6.40;99.90
9772;DHT22;4925;52.588;13.370;2022-11-25T03:29:52;6.30;99.90
9772;DHT22;4925;52.588;13.370;2022-11-25T03:32:17;6.30;99.90
9772;DHT22;4925;52.588;13.370;2022-11-25T03:34:43;6.40;99.90
9772;DHT22;4925;52.588;13.370;2022-11-25T03:37:09;6.50;99.90
9772;DHT22;4925;52.588;13.370;2022-11-25T03:39:35;6.50;99.90
9772;DHT22;4925;52.588;13.370;2022-11-25T03:42:00;6.60;99.90
9772;DHT22;4925;52.588;13.370;2022-11-25T03:44:26;6.60;99.90
9772;DHT22;4925;52.588;13.370;2022-11-25T03:46:52;6.50;99.90
9772;DHT22;4925;52.588;13.370;2022-11-25T03:49:17;6.70;99.90
9772;DHT22;4925;52.588;13.370;2022-11-25T03:51:43;6.80;99.90
9772;DHT22;4925;52.588;13.370;2022-11-25T03:54:09;6.90;99.90
9772;DHT22;4925;52.588;13.370;2022-11-25T03:56:35;7.00;99.90
9772;DHT22;4925;52.588;13.370;2022-11-25T03:59:00;7.00;99.90
9772;DHT22;4925;52.588;13.370;2022-11-25T04:01:26;7.20;99.90
9772;DHT22;4925;52.588;13.370;2022-11-25T04:03:52;7.20;99.90
9772;DHT22;4925;52.588;13.370;2022-11-25T04:06:17;7.30;99.90
9772;DHT22;4925;52.588;13.370;2022-11-25T04:08:45;7.40;99.90
9772;DHT22;4925;52.588;13.370;2022-11-25T04:11:10;7.50;99.90
9772;DHT22;4925;52.588;13.370;2022-11-25T04:13:36;7.50;99.90
9772;DHT22;4925;52.588;13.370;2022-11-25T04:16:02;7.50;99.90
9772;DHT22;4925;52.588;13.370;2022-11-25T04:18:28;7.50;99.90
9772;DHT22;4925;52.588;13.370;2022-11-25T04:20:53;7.50;99.90
9772;DHT22;4925;52.588;13.370;2022-11-25T04:23:19;7.50;99.90
9772;DHT22;4925;52.588;13.370;2022-11-25T04:25:44;7.60;99.90
9772;DHT22;4925;52.588;13.370;2022-11-25T04:28:13;7.50;99.90
9772;DHT22;4925;52.588;13.370;2022-11-25T04:30:39;7.50;99.90
9772;DHT22;4925;52.588;13.370;2022-11-25T04:33:06;7.50;99.90
9772;DHT22;4925;52.588;13.370;2022-11-25T04:35:32;7.60;99.90
9772;DHT22;4925;52.588;13.370;2022-11-25T04:37:57;7.60;99.90
9772;DHT22;4925;52.588;13.370;2022-11-25T04:40:23;7.60;99.90
9772;DHT22;4925;52.588;13.370;2022-11-25T04:42:49;7.50;99.90
9772;DHT22;4925;52.588;13.370;2022-11-25T04:45:16;7.50;99.90
9772;DHT22;4925;52.588;13.370;2022-11-25T04:47:43;7.50;99.90
9772;DHT22;4925;52.588;13.370;2022-11-25T04:50:13;7.50;99.90
9772;DHT22;4925;52.588;13.370;2022-11-25T04:52:39;7.50;99.90
9772;DHT22;4925;52.588;13.370;2022-11-25T04:55:05;7.50;99.90
9772;DHT22;4925;52.588;13.370;2022-11-25T04:57:31;7.50;99.90
9772;DHT22;4925;52.588;13.370;2022-11-25T04:59:57;7.40;99.90
9772;DHT22;4925;52.588;13.370;2022-11-25T05:02:24;7.40;99.90
9772;DHT22;4925;52.588;13.370;2022-11-25T05:04:53;7.40;99.90
9772;DHT22;4925;52.588;13.370;2022-11-25T05:07:21;7.40;99.90
9772;DHT22;4925;52.588;13.370;2022-11-25T05:09:47;7.40;99.90
9772;DHT22;4925;52.588;13.370;2022-11-25T05:12:16;7.40;99.90
9772;DHT22;4925;52.588;13.370;2022-11-25T05:14:43;7.50;99.90
9772;DHT22;4925;52.588;13.370;2022-11-25T05:17:17;7.50;99.90
9772;DHT22;4925;52.588;13.370;2022-11-25T05:19:43;7.40;99.90
9772;DHT22;4925;52.588;13.370;2022-11-25T05:22:15;7.50;99.90
9772;DHT22;4925;52.588;13.370;2022-11-25T05:24:42;7.40;99.90
9772;DHT22;4925;52.588;13.370;2022-11-25T05:27:08;7.50;99.90
9772;DHT22;4925;52.588;13.370;2022-11-25T05:29:34;7.50;99.90
9772;DHT22;4925;52.588;13.370;2022-11-25T05:31:59;7.50;99.90
9772;DHT22;4925;52.588;13.370;2022-11-25T05:34:25;7.50;99.90
9772;DHT22;4925;52.588;13.370;2022-11-25T05:36:51;7.50;99.90
9772;DHT22;4925;52.588;13.370;2022-11-25T05:39:17;7.50;99.90
9772;DHT22;4925;52.588;13.370;2022-11-25T05:41:43;7.40;99.90
9772;DHT22;4925;52.588;13.370;2022-11-25T05:44:08;7.40;99.90
9772;DHT22;4925;52.588;13.370;2022-11-25T05:46:34;7.40;99.90
9772;DHT22;4925;52.588;13.370;2022-11-25T05:49:00;7.50;99.90
9772;DHT22;4925;52.588;13.370;2022-11-25T05:51:26;7.50;99.90
9772;DHT22;4925;52.588;13.370;2022-11-25T05:53:53;7.60;99.90
9772;DHT22;4925;52.588;13.370;2022-11-25T05:56:18;7.60;99.90
9772;DHT22;4925;52.588;13.370;2022-11-25T05:58:44;7.60;99.90
9772;DHT22;4925;52.588;13.370;2022-11-25T06:01:11;7.60;99.90
9772;DHT22;4925;52.588;13.370;2022-11-25T06:03:38;7.60;99.90
9772;DHT22;4925;52.588;13.370;2022-11-25T06:06:04;7.50;99.90
9772;DHT22;4925;52.588;13.370;2022-11-25T06:08:31;7.60;99.90
9772;DHT22;4925;52.588;13.370;2022-11-25T06:10:56;7.60;99.90
9772;DHT22;4925;52.588;13.370;2022-11-25T06:13:22;7.60;99.90
9772;DHT22;4925;52.588;13.370;2022-11-25T06:15:48;7.60;99.90
9772;DHT22;4925;52.588;13.370;2022-11-25T06:18:14;7.60;99.90
9772;DHT22;4925;52.588;13.370;2022-11-25T06:20:40;7.60;99.90
9772;DHT22;4925;52.588;13.370;2022-11-25T06:23:06;7.70;99.90
9772;DHT22;4925;52.588;13.370;2022-11-25T06:25:32;7.60;99.90
9772;DHT22;4925;52.588;13.370;2022-11-25T06:28:00;7.40;99.90
9772;DHT22;4925;52.588;13.370;2022-11-25T06:30:27;7.30;99.90
9772;DHT22;4925;52.588;13.370;2022-11-25T06:32:53;7.30;99.90
9772;DHT22;4925;52.588;13.370;2022-11-25T06:35:19;7.30;99.90
9772;DHT22;4925;52.588;13.370;2022-11-25T06:37:45;7.30;99.90
9772;DHT22;4925;52.588;13.370;2022-11-25T06:40:10;7.20;99.90
9772;DHT22;4925;52.588;13.370;2022-11-25T06:42:39;7.20;99.90
9772;DHT22;4925;52.588;13.370;2022-11-25T06:45:08;7.20;99.90
9772;DHT22;4925;52.588;13.370;2022-11-25T06:47:34;7.10;99.90
9772;DHT22;4925;52.588;13.370;2022-11-25T06:50:00;7.20;99.90
9772;DHT22;4925;52.588;13.370;2022-11-25T06:52:25;7.10;99.90
9772;DHT22;4925;52.588;13.370;2022-11-25T06:54:51;7.10;99.90
9772;DHT22;4925;52.588;13.370;2022-11-25T06:57:18;7.10;99.90
9772;DHT22;4925;52.588;13.370;2022-11-25T06:59:44;7.10;99.90
9772;DHT22;4925;52.588;13.370;2022-11-25T07:02:13;7.10;99.90
9772;DHT22;4925;52.588;13.370;2022-11-25T07:04:39;7.10;99.90
9772;DHT22;4925;52.588;13.370;2022-11-25T07:07:05;7.10;99.90
9772;DHT22;4925;52.588;13.370;2022-11-25T07:09:31;7.10;99.90
9772;DHT22;4925;52.588;13.370;2022-11-25T07:11:57;7.00;99.90
9772;DHT22;4925;52.588;13.370;2022-11-25T07:14:23;7.10;99.90
9772;DHT22;4925;52.588;13.370;2022-11-25T07:16:48;7.10;99.90
9772;DHT22;4925;52.588;13.370;2022-11-25T07:19:16;7.00;99.90
9772;DHT22;4925;52.588;13.370;2022-11-25T07:21:43;7.00;99.90
9772;DHT22;4925;52.588;13.370;2022-11-25T07:24:12;7.00;99.90
9772;DHT22;4925;52.588;13.370;2022-11-25T07:26:39;7.00;99.90
9772;DHT22;4925;52.588;13.370;2022-11-25T07:29:08;7.00;99.90
9772;DHT22;4925;52.588;13.370;2022-11-25T07:31:36;7.00;99.90
9772;DHT22;4925;52.588;13.370;2022-11-25T07:34:25;7.10;99.90
9772;DHT22;4925;52.588;13.370;2022-11-25T07:36:51;6.90;99.90
9772;DHT22;4925;52.588;13.370;2022-11-25T07:39:19;6.90;99.90
9772;DHT22;4925;52.588;13.370;2022-11-25T07:41:48;6.70;99.90
9772;DHT22;4925;52.588;13.370;2022-11-25T07:44:14;6.90;99.90
9772;DHT22;4925;52.588;13.370;2022-11-25T07:46:48;7.00;99.90
9772;DHT22;4925;52.588;13.370;2022-11-25T07:49:17;7.10;99.90
9772;DHT22;4925;52.588;13.370;2022-11-25T07:51:54;7.20;99.90
9772;DHT22;4925;52.588;13.370;2022-11-25T07:54:21;7.20;99.90
9772;DHT22;4925;52.588;13.370;2022-11-25T07:56:47;7.20;99.90
9772;DHT22;4925;52.588;13.370;2022-11-25T07:59:16;7.30;99.90
9772;DHT22;4925;52.588;13.370;2022-11-25T08:01:42;7.40;99.90
9772;DHT22;4925;52.588;13.370;2022-11-25T08:04:10;7.40;99.90
9772;DHT22;4925;52.588;13.370;2022-11-25T08:06:38;7.50;99.90
9772;DHT22;4925;52.588;13.370;2022-11-25T08:09:04;7.60;99.90
9772;DHT22;4925;52.588;13.370;2022-11-25T08:11:31;7.70;99.90
9772;DHT22;4925;52.588;13.370;2022-11-25T08:13:58;7.70;99.90
9772;DHT22;4925;52.588;13.370;2022-11-25T08:16:25;7.70;99.90
9772;DHT22;4925;52.588;13.370;2022-11-25T08:18:56;7.80;99.90
9772;DHT22;4925;52.588;13.370;2022-11-25T08:21:22;7.80;99.90
9772;DHT22;4925;52.588;13.370;2022-11-25T08:23:48;7.60;99.90
9772;DHT22;4925;52.588;13.370;2022-11-25T08:26:28;7.70;99.90
9772;DHT22;4925;52.588;13.370;2022-11-25T08:28:58;7.70;99.90
9772;DHT22;4925;52.588;13.370;2022-11-25T08:31:29;7.70;99.90
9772;DHT22;4925;52.588;13.370;2022-11-25T08:33:56;7.60;99.90
9772;DHT22;4925;52.588;13.370;2022-11-25T08:36:23;7.60;99.90
9772;DHT22;4925;52.588;13.370;2022-11-25T08:38:51;7.50;99.90
9772;DHT22;4925;52.588;13.370;2022-11-25T08:41:21;7.50;99.90
9772;DHT22;4925;52.588;13.370;2022-11-25T08:43:47;7.50;99.90
9772;DHT22;4925;52.588;13.370;2022-11-25T08:46:16;7.60;99.90
9772;DHT22;4925;52.588;13.370;2022-11-25T08:48:42;7.50;99.90
9772;DHT22;4925;52.588;13.370;2022-11-25T08:51:12;7.40;99.90
9772;DHT22;4925;52.588;13.370;2022-11-25T08:53:40;7.40;99.90
9772;DHT22;4925;52.588;13.370;2022-11-25T08:56:06;7.30;99.90
9772;DHT22;4925;52.588;13.370;2022-11-25T08:58:33;7.20;99.90
9772;DHT22;4925;52.588;13.370;2022-11-25T09:00:59;7.20;99.90
9772;DHT22;4925;52.588;13.370;2022-11-25T09:03:25;7.20;99.90
9772;DHT22;4925;52.588;13.370;2022-11-25T09:05:52;7.40;99.90
9772;DHT22;4925;52.588;13.370;2022-11-25T09:08:18;7.60;99.90
9772;DHT22;4925;52.588;13.370;2022-11-25T09:10:43;7.50;99.90
9772;DHT22;4925;52.588;13.370;2022-11-25T09:13:09;7.70;99.90
9772;DHT22;4925;52.588;13.370;2022-11-25T09:15:36;7.60;99.90
9772;DHT22;4925;52.588;13.370;2022-11-25T09:18:05;7.70;99.90
9772;DHT22;4925;52.588;13.370;2022-11-25T09:20:33;7.80;99.90
9772;DHT22;4925;52.588;13.370;2022-11-25T09:23:00;7.80;99.90
9772;DHT22;4925;52.588;13.370;2022-11-25T09:25:26;7.80;99.90
9772;DHT22;4925;52.588;13.370;2022-11-25T09:27:52;7.90;99.90
9772;DHT22;4925;52.588;13.370;2022-11-25T09:30:18;7.90;99.90
9772;DHT22;4925;52.588;13.370;2022-11-25T09:32:48;8.00;99.90
9772;DHT22;4925;52.588;13.370;2022-11-25T09:35:14;8.00;99.90
9772;DHT22;4925;52.588;13.370;2022-11-25T09:37:39;8.00;99.90
9772;DHT22;4925;52.588;13.370;2022-11-25T09:49:38;7.70;99.90
9772;DHT22;4925;52.588;13.370;2022-11-25T09:55:07;7.90;99.90
9772;DHT22;4925;52.588;13.370;2022-11-25T10:00:20;7.80;99.90
9772;DHT22;4925;52.588;13.370;2022-11-25T10:05:33;8.00;99.90
9772;DHT22;4925;52.588;13.370;2022-11-25T10:08:09;8.00;99.90
9772;DHT22;4925;52.588;13.370;2022-11-25T10:10:43;8.10;99.90
9772;DHT22;4925;52.588;13.370;2022-11-25T10:13:28;8.10;99.90
9772;DHT22;4925;52.588;13.370;2022-11-25T10:16:00;8.10;99.90
9772;DHT22;4925;52.588;13.370;2022-11-25T10:18:28;8.10;99.90
9772;DHT22;4925;52.588;13.370;2022-11-25T10:20:56;8.10;99.90
9772;DHT22;4925;52.588;13.370;2022-11-25T10:23:23;8.00;99.90
9772;DHT22;4925;52.588;13.370;2022-11-25T10:25:56;8.10;99.90
9772;DHT22;4925;52.588;13.370;2022-11-25T10:28:31;8.10;99.90
9772;DHT22;4925;52.588;13.370;2022-11-25T10:31:18;8.30;99.90
9772;DHT22;4925;52.588;13.370;2022-11-25T10:33:55;8.50;99.90
9772;DHT22;4925;52.588;13.370;2022-11-25T10:36:30;8.70;99.90
9772;DHT22;4925;52.588;13.370;2022-11-25T10:39:16;8.70;99.90
9772;DHT22;4925;52.588;13.370;2022-11-25T10:42:08;8.60;99.90
9772;DHT22;4925;52.588;13.370;2022-11-25T10:44:40;8.50;99.90
9772;DHT22;4925;52.588;13.370;2022-11-25T10:52:20;9.20;99.90
9772;DHT22;4925;52.588;13.370;2022-11-25T10:57:34;9.40;99.90
9772;DHT22;4925;52.588;13.370;2022-11-25T11:00:00;9.50;99.90
9772;DHT22;4925;52.588;13.370;2022-11-25T11:02:36;9.60;99.90
9772;DHT22;4925;52.588;13.370;2022-11-25T11:07:41;9.70;99.90
9772;DHT22;4925;52.588;13.370;2022-11-25T11:13:04;9.60;99.90
9772;DHT22;4925;52.588;13.370;2022-11-25T11:15:32;9.70;99.90
9772;DHT22;4925;52.588;13.370;2022-11-25T11:18:12;9.70;99.90
9772;DHT22;4925;52.588;13.370;2022-11-25T11:20:47;9.80;99.90
9772;DHT22;4925;52.588;13.370;2022-11-25T11:23:14;9.90;99.90
9772;DHT22;4925;52.588;13.370;2022-11-25T11:25:55;9.80;99.90
9772;DHT22;4925;52.588;13.370;2022-11-25T11:28:42;9.90;99.90
9772;DHT22;4925;52.588;13.370;2022-11-25T11:31:20;9.90;99.90
9772;DHT22;4925;52.588;13.370;2022-11-25T11:36:48;10.00;99.90
9772;DHT22;4925;52.588;13.370;2022-11-25T11:42:12;10.10;99.90
9772;DHT22;4925;52.588;13.370;2022-11-25T11:45:15;10.10;99.90
9772;DHT22;4925;52.588;13.370;2022-11-25T11:53:30;10.30;99.90
9772;DHT22;4925;52.588;13.370;2022-11-25T12:04:14;10.50;99.90
9772;DHT22;4925;52.588;13.370;2022-11-25T12:06:41;10.50;99.90
9772;DHT22;4925;52.588;13.370;2022-11-25T12:09:14;10.40;99.90
9772;DHT22;4925;52.588;13.370;2022-11-25T12:11:45;10.40;99.90
9772;DHT22;4925;52.588;13.370;2022-11-25T12:14:24;10.70;99.90
9772;DHT22;4925;52.588;13.370;2022-11-25T12:17:35;10.70;99.90
9772;DHT22;4925;52.588;13.370;2022-11-25T12:20:04;10.60;99.90
9772;DHT22;4925;52.588;13.370;2022-11-25T12:22:36;10.80;99.90
9772;DHT22;4925;52.588;13.370;2022-11-25T12:28:02;10.70;99.90
9772;DHT22;4925;52.588;13.370;2022-11-25T12:33:15;10.70;99.90
9772;DHT22;4925;52.588;13.370;2022-11-25T12:36:04;10.70;99.90
9772;DHT22;4925;52.588;13.370;2022-11-25T12:41:52;10.60;99.90
9772;DHT22;4925;52.588;13.370;2022-11-25T12:44:52;10.70;99.90
9772;DHT22;4925;52.588;13.370;2022-11-25T12:47:24;10.70;99.90
9772;DHT22;4925;52.588;13.370;2022-11-25T12:49:52;10.70;99.90
9772;DHT22;4925;52.588;13.370;2022-11-25T12:52:59;10.60;99.90
9772;DHT22;4925;52.588;13.370;2022-11-25T12:55:27;10.40;99.90
9772;DHT22;4925;52.588;13.370;2022-11-25T12:58:31;10.20;99.90
9772;DHT22;4925;52.588;13.370;2022-11-25T13:01:15;10.00;99.90
9772;DHT22;4925;52.588;13.370;2022-11-25T13:17:44;9.50;99.90
9772;DHT22;4925;52.588;13.370;2022-11-25T13:25:32;9.50;99.90
9772;DHT22;4925;52.588;13.370;2022-11-25T13:27:59;9.50;99.90
9772;DHT22;4925;52.588;13.370;2022-11-25T13:35:55;9.40;99.90
9772;DHT22;4925;52.588;13.370;2022-11-25T13:51:51;9.10;99.90
9772;DHT22;4925;52.588;13.370;2022-11-25T13:54:20;9.00;99.90
9772;DHT22;4925;52.588;13.370;2022-11-25T13:57:18;9.00;99.90
9772;DHT22;4925;52.588;13.370;2022-11-25T14:02:43;8.70;99.90
9772;DHT22;4925;52.588;13.370;2022-11-25T14:10:44;8.60;99.90
9772;DHT22;4925;52.588;13.370;2022-11-25T14:21:57;8.50;99.90
9772;DHT22;4925;52.588;13.370;2022-11-25T14:24:36;8.50;99.90
9772;DHT22;4925;52.588;13.370;2022-11-25T14:27:09;8.60;99.90
9772;DHT22;4925;52.588;13.370;2022-11-25T14:29:54;8.70;99.90
9772;DHT22;4925;52.588;13.370;2022-11-25T14:32:22;8.80;99.90
9772;DHT22;4925;52.588;13.370;2022-11-25T14:34:58;8.80;99.90
9772;DHT22;4925;52.588;13.370;2022-11-25T14:37:31;8.80;99.90
9772;DHT22;4925;52.588;13.370;2022-11-25T14:40:05;8.90;99.90
9772;DHT22;4925;52.588;13.370;2022-11-25T14:42:35;8.90;99.90
9772;DHT22;4925;52.588;13.370;2022-11-25T14:45:02;8.90;99.90
9772;DHT22;4925;52.588;13.370;2022-11-25T14:47:30;8.90;99.90
9772;DHT22;4925;52.588;13.370;2022-11-25T14:50:04;8.90;99.90
9772;DHT22;4925;52.588;13.370;2022-11-25T14:52:36;8.90;99.90
9772;DHT22;4925;52.588;13.370;2022-11-25T14:55:04;8.90;99.90
9772;DHT22;4925;52.588;13.370;2022-11-25T14:57:36;8.90;99.90
9772;DHT22;4925;52.588;13.370;2022-11-25T15:00:20;8.90;99.90
9772;DHT22;4925;52.588;13.370;2022-11-25T15:02:58;8.90;99.90
9772;DHT22;4925;52.588;13.370;2022-11-25T15:05:36;8.90;99.90
9772;DHT22;4925;52.588;13.370;2022-11-25T15:10:41;8.90;99.90
9772;DHT22;4925;52.588;13.370;2022-11-25T15:16:03;9.00;99.90
9772;DHT22;4925;52.588;13.370;2022-11-25T15:18:31;9.00;99.90
9772;DHT22;4925;52.588;13.370;2022-11-25T15:20:59;8.90;99.90
9772;DHT22;4925;52.588;13.370;2022-11-25T15:23:31;8.90;99.90
9772;DHT22;4925;52.588;13.370;2022-11-25T15:26:00;9.00;99.90
9772;DHT22;4925;52.588;13.370;2022-11-25T15:28:33;9.00;99.90
9772;DHT22;4925;52.588;13.370;2022-11-25T15:31:01;9.10;99.90
9772;DHT22;4925;52.588;13.370;2022-11-25T15:33:28;9.10;99.90
9772;DHT22;4925;52.588;13.370;2022-11-25T15:35:54;9.00;99.90
9772;DHT22;4925;52.588;13.370;2022-11-25T15:38:41;9.10;99.90
9772;DHT22;4925;52.588;13.370;2022-11-25T15:43:44;9.00;99.90
9772;DHT22;4925;52.588;13.370;2022-11-25T15:46:11;9.00;99.90
9772;DHT22;4925;52.588;13.370;2022-11-25T15:48:48;9.00;99.90
9772;DHT22;4925;52.588;13.370;2022-11-25T15:54:25;9.00;99.90
9772;DHT22;4925;52.588;13.370;2022-11-25T15:57:00;9.00;99.90
9772;DHT22;4925;52.588;13.370;2022-11-25T15:59:40;9.00;99.90
9772;DHT22;4925;52.588;13.370;2022-11-25T16:07:38;9.10;99.90
9772;DHT22;4925;52.588;13.370;2022-11-25T16:10:23;9.10;99.90
9772;DHT22;4925;52.588;13.370;2022-11-25T16:18:19;9.10;99.90
9772;DHT22;4925;52.588;13.370;2022-11-25T16:20:51;9.20;99.90
9772;DHT22;4925;52.588;13.370;2022-11-25T16:23:20;9.20;99.90
9772;DHT22;4925;52.588;13.370;2022-11-25T16:26:32;9.20;99.90
9772;DHT22;4925;52.588;13.370;2022-11-25T16:28:59;9.30;99.90
9772;DHT22;4925;52.588;13.370;2022-11-25T16:31:26;9.20;99.90
9772;DHT22;4925;52.588;13.370;2022-11-25T16:34:18;9.20;99.90
9772;DHT22;4925;52.588;13.370;2022-11-25T16:36:44;9.20;99.90
9772;DHT22;4925;52.588;13.370;2022-11-25T16:39:10;9.30;99.90
9772;DHT22;4925;52.588;13.370;2022-11-25T16:41:36;9.40;99.90
9772;DHT22;4925;52.588;13.370;2022-11-25T16:44:18;9.40;99.90
9772;DHT22;4925;52.588;13.370;2022-11-25T16:46:45;9.50;99.90
9772;DHT22;4925;52.588;13.370;2022-11-25T16:49:16;9.50;99.90
9772;DHT22;4925;52.588;13.370;2022-11-25T16:51:42;9.50;99.90
9772;DHT22;4925;52.588;13.370;2022-11-25T16:54:08;9.50;99.90
9772;DHT22;4925;52.588;13.370;2022-11-25T16:56:38;9.50;99.90
9772;DHT22;4925;52.588;13.370;2022-11-25T16:59:04;9.50;99.90
9772;DHT22;4925;52.588;13.370;2022-11-25T17:01:32;9.50;99.90
9772;DHT22;4925;52.588;13.370;2022-11-25T17:03:58;9.50;99.90
9772;DHT22;4925;52.588;13.370;2022-11-25T17:06:25;9.50;99.90
9772;DHT22;4925;52.588;13.370;2022-11-25T17:08:52;9.50;99.90
9772;DHT22;4925;52.588;13.370;2022-11-25T17:11:28;9.40;99.90
9772;DHT22;4925;52.588;13.370;2022-11-25T17:13:57;9.50;99.90
9772;DHT22;4925;52.588;13.370;2022-11-25T17:16:26;9.50;99.90
9772;DHT22;4925;52.588;13.370;2022-11-25T17:18:53;9.60;99.90
9772;DHT22;4925;52.588;13.370;2022-11-25T17:21:20;9.60;99.90
9772;DHT22;4925;52.588;13.370;2022-11-25T17:23:51;9.50;99.90
9772;DHT22;4925;52.588;13.370;2022-11-25T17:26:32;9.50;99.90
9772;DHT22;4925;52.588;13.370;2022-11-25T17:29:01;9.50;99.90
9772;DHT22;4925;52.588;13.370;2022-11-25T17:31:32;9.60;99.90
9772;DHT22;4925;52.588;13.370;2022-11-25T17:33:58;9.50;99.90
9772;DHT22;4925;52.588;13.370;2022-11-25T17:36:24;9.60;99.90
9772;DHT22;4925;52.588;13.370;2022-11-25T17:38:51;9.60;99.90
9772;DHT22;4925;52.588;13.370;2022-11-25T17:41:18;9.70;99.90
9772;DHT22;4925;52.588;13.370;2022-11-25T17:43:48;9.60;99.90
9772;DHT22;4925;52.588;13.370;2022-11-25T17:46:16;9.70;99.90
9772;DHT22;4925;52.588;13.370;2022-11-25T17:48:42;9.70;99.90
9772;DHT22;4925;52.588;13.370;2022-11-25T17:51:09;9.70;99.90
9772;DHT22;4925;52.588;13.370;2022-11-25T17:53:36;9.70;99.90
9772;DHT22;4925;52.588;13.370;2022-11-25T17:58:47;9.80;99.90
9772;DHT22;4925;52.588;13.370;2022-11-25T18:01:13;9.90;99.90
9772;DHT22;4925;52.588;13.370;2022-11-25T18:03:39;9.80;99.90
9772;DHT22;4925;52.588;13.370;2022-11-25T18:06:05;9.80;99.90
9772;DHT22;4925;52.588;13.370;2022-11-25T18:08:31;9.80;99.90
9772;DHT22;4925;52.588;13.370;2022-11-25T18:10:58;9.80;99.90
9772;DHT22;4925;52.588;13.370;2022-11-25T18:13:24;9.80;99.90
9772;DHT22;4925;52.588;13.370;2022-11-25T18:15:50;9.80;99.90
9772;DHT22;4925;52.588;13.370;2022-11-25T18:18:21;9.80;99.90
9772;DHT22;4925;52.588;13.370;2022-11-25T18:20:49;9.80;99.90
9772;DHT22;4925;52.588;13.370;2022-11-25T18:23:15;9.80;99.90
9772;DHT22;4925;52.588;13.370;2022-11-25T18:25:42;9.80;99.90
9772;DHT22;4925;52.588;13.370;2022-11-25T18:28:19;9.80;99.90
9772;DHT22;4925;52.588;13.370;2022-11-25T18:30:47;9.80;99.90
9772;DHT22;4925;52.588;13.370;2022-11-25T18:33:15;9.80;99.90
9772;DHT22;4925;52.588;13.370;2022-11-25T18:35:42;9.80;99.90
9772;DHT22;4925;52.588;13.370;2022-11-25T18:38:08;9.90;99.90
9772;DHT22;4925;52.588;13.370;2022-11-25T18:40:36;9.80;99.90
9772;DHT22;4925;52.588;13.370;2022-11-25T18:43:05;9.80;99.90
9772;DHT22;4925;52.588;13.370;2022-11-25T18:45:38;9.80;99.90
9772;DHT22;4925;52.588;13.370;2022-11-25T18:48:22;9.80;99.90